Zhuozhou, China
Current Conditions -  °F | °C
As of 5:30 AM on Thursday 27 Nov 2014 (Local Time) from ZBAA Reporting Station
Clear Clear  
Wind Chill: 37°   Ceiling: Unl
Heat Index: 43°   Visibility: 6mi
Dew Point:   Wind: 11mph
Humidity: 23%   Direction: 40°NE
Pressure: 30.21"   Gusts: 22mph
Location:  39.53°N, 115.79°E
Report Text: ZBAA 262130Z 04005G10MPS 010V070 CAVOK 06/M14 Q1023 NOSIG
Loading
Personal Weather Stations






























Interactive Weather Map New forecast layout! Learn more

10-Day Weather Forecast

Advertisements
Track Severe Weather on mobile